メインページ
METAR-TAF:

METAR-TAF

空港 :

シカゴ・オヘア国際空港

シカゴ, イリノイ州, アメリカ合衆国

緯度: 41-58-47N, 経度: 087-54-16W, 海抜: 203m

現時点の気象観測

当レポートは31分前の22:51(UTC)に作成
東/南東の風 5kt
気温 21°C
湿度 83%
気圧 1013 hPa
視程: 14.5km
高度1500ftの曇り

METAR: KORD 242251Z 12005KT 9SM OVC015 21/18 A2992 RMK AO2 SLP131 T02110178

時間: 18:22 (23:22 UTC)

予報

当レポートは2時間27分前の20:55(UTC)に作成
予報は24日の 21時(UTC)から 25日の 24時(UTC)まで有効
東/南東の風 8kt
視程: 8.0km
高度800ftの雲は散在している
高度1200ftの曇り
24日の 2130時(UTC)から
南東の風 7kt
視程: 10km
高度2000ftの曇り
25日の 0300時(UTC)から
南/南東の風 6kt
視程: 9.7km
高度1000ftの曇り
小霧雨
25日の 0500時(UTC)から
南/南西の風 5kt
視程: 8.0km
高度800ftの曇り
小霧雨, 靄
25日の 1100時(UTC)から
南/南西の風 4kt
視程: 9.7km
高度1200ftの曇り
25日の 1600時(UTC)から
南/南西の風 9kt
視程: 10km
高度1200ftの雲は散在している
高度3500ftの千切れ雲あり
近辺でにわか雨
確率 30%
25日の 21時(UTC)から 25日の 24時(UTC)まで
視程: 4.8km
高度3500ftの曇り, 積乱雲.
激しい雷雨, 雨

TAF: KORD 242055Z 2421/2524 12008KT 5SM BR SCT008 OVC012 FM242130 14007KT P6SM OVC020 FM250300 16006KT 6SM -DZ OVC010 FM250500 20005KT 5SM -DZ BR OVC008 FM251100 21004KT 6SM BR OVC012 FM251600 20009KT P6SM VCSH SCT012 BKN035 PROB30 2521/2524 3SM TSRA OVC035CB

4,000以上の空港の気象観測と天気予報(METAR報とTAF報)

利用可能な観測所は地図上に黄色い丸と赤い丸で示す。

丸の上にカーソルを重ねると観測所名を参照できる。

次にクリックすると気象観測と天気予報を参照できる。

マップの切り替え:黒色「×」印の緑ボタンをクリックして拡大、「-」印の緑ボタンをクリックして縮小、緑色の三角印をクリックして隣りの地図に切り替え


METAR-TAF: